DW3648 Granada ES current weather conditions

sailwx.info

Wind from 092

Air temperature 2.2° C
Dewpoint 0.1° C

Last reported at 2018-Dec-14 06:00 UTC.
Time now 2018-Dec-14 06:46 UTC

Location: N 37°10' W 003°35'.
View on Google Maps.

See reports from other nearby stations

  
Tides and Currents Weather Stations Pressure Air Temp Water Temp Dewpoint Dewpoint Depression Visibility Wind Speed Wind Dir Waves Ship Positions
date/time (UTC)wind fromknots sea level pressurealtimeterstation pressurevisibilityair tempwater tempwave heightnotes
2018-Dec-14 06:00 092 2.2
2018-Dec-14 05:46 092 2 gusting 6 2.2
2018-Dec-14 05:30 090 2 gusting 5 2.2
2018-Dec-14 05:16 104 3 gusting 5 2.8
2018-Dec-14 05:00 103 3 gusting 6 2.8
2018-Dec-14 04:45 316 3.3
2018-Dec-14 04:30 316 0 gusting 3 3.9
2018-Dec-14 04:02 329 4.4
2018-Dec-14 03:47 318 4.4
2018-Dec-14 03:31 318 4.4
2018-Dec-14 03:16 318 4.4
2018-Dec-14 03:01 318 5.0
2018-Dec-14 02:46 355 5.0
2018-Dec-14 02:31 333 0 gusting 5 5.0
2018-Dec-14 02:16 067 5.6
2018-Dec-14 02:01 067 5.6
2018-Dec-14 01:47 067 5.6
2018-Dec-14 01:31 067 6.1
2018-Dec-14 01:16 068 6.1
2018-Dec-14 01:01 297 6.1
2018-Dec-14 00:46 297 6.7
2018-Dec-14 00:31 290 6.7
2018-Dec-14 00:16 297 0 gusting 4 6.7
2018-Dec-14 00:01 343 6.7
2018-Dec-13 23:45 302 6.7
2018-Dec-13 23:31 294 6.7
2018-Dec-13 23:15 096 6.7
2018-Dec-13 23:00 096 6.7
2018-Dec-13 22:45 096 1 gusting 6 6.7
2018-Dec-13 22:30 286 6.7
2018-Dec-13 22:15 281 5 gusting 15 7.2
2018-Dec-13 22:01 301 7 gusting 13 7.2
2018-Dec-13 21:45 302 8 gusting 15 7.2
2018-Dec-13 21:30 286 6 gusting 12 7.8
2018-Dec-13 21:15 264 4 gusting 11 7.8
2018-Dec-13 21:00 217 7.8
2018-Dec-13 20:45 284 1 gusting 8 7.8
2018-Dec-13 20:30 279 4 gusting 8 7.8
2018-Dec-13 20:15 172 0 gusting 13 7.8
2018-Dec-13 20:00 303 3 gusting 7 7.8
2018-Dec-13 19:45 319 2 gusting 8 7.8
2018-Dec-13 19:30 269 1 gusting 8 7.8
2018-Dec-13 19:15 263 0 gusting 5 8.3
2018-Dec-13 19:00 329 1 gusting 8 8.3
2018-Dec-13 18:45 257 5 gusting 11 8.3
2018-Dec-13 18:30 311 4 gusting 9 8.3
2018-Dec-13 18:15 272 6 gusting 12 8.3
2018-Dec-13 18:00 261 3 gusting 9 8.3
2018-Dec-13 17:45 303 6 gusting 10 8.9
2018-Dec-13 17:30 264 6 gusting 17 8.9
2018-Dec-13 17:16 271 5 gusting 11 8.3
2018-Dec-13 17:00 256 1 gusting 7 8.3
2018-Dec-13 16:45 275 1 gusting 8 8.3
2018-Dec-13 16:30 254 4 gusting 11 8.3
2018-Dec-13 16:15 290 3 gusting 12 8.3
2018-Dec-13 16:00 309 6 gusting 16 8.9
2018-Dec-13 15:45 258 8 gusting 16 9.4
2018-Dec-13 15:30 317 9 gusting 19 10.0
2018-Dec-13 15:15 302 7 gusting 15 10.0
2018-Dec-13 15:00 291 5 gusting 15 10.0
2018-Dec-13 14:45 221 4 gusting 18 10.0
2018-Dec-13 14:30 244 3 gusting 18 9.4
2018-Dec-13 14:15 304 0 gusting 10 9.4
2018-Dec-13 14:02 268 6 gusting 16 8.9
2018-Dec-13 13:46 273 0 gusting 10 8.3
2018-Dec-13 13:31 335 7.8
2018-Dec-13 13:16 235 7.8
2018-Dec-13 13:02 252 2 gusting 5 7.8
2018-Dec-13 12:46 187 0 gusting 7 7.8
2018-Dec-13 12:32 232 0 gusting 7 7.8
2018-Dec-13 12:17 174 1 gusting 6 7.2
2018-Dec-13 12:01 164 0 gusting 8 6.7
2018-Dec-13 11:46 248 2 gusting 8 7.2
2018-Dec-13 11:31 215 1 gusting 9 7.8
2018-Dec-13 11:17 243 2 gusting 9 7.8
2018-Dec-13 11:01 317 4 gusting 15 7.8
2018-Dec-13 10:46 289 8 gusting 18 10.0
2018-Dec-13 10:32 273 8 gusting 21 10.6
2018-Dec-13 10:16 252 8 gusting 18 12.2
2018-Dec-13 10:01 200 4 gusting 13 12.2
2018-Dec-13 09:46 186 6 gusting 13 12.2
2018-Dec-13 09:31 087 2 gusting 9 12.2
2018-Dec-13 09:16 201 2 gusting 8 11.1
2018-Dec-13 09:01 167 10.6
2018-Dec-13 08:46 118 10.6
2018-Dec-13 08:30 133 0 gusting 6 9.4
2018-Dec-13 08:16 126 5 gusting 7 8.9
2018-Dec-13 08:00 127 4 gusting 7 8.3
2018-Dec-13 07:46 090 2 gusting 5 8.3
2018-Dec-13 07:30 082 8.3
2018-Dec-13 07:15 082 2 gusting 4 8.3
2018-Dec-13 07:00 082 8.3
2018-Dec-13 06:45 082 1 gusting 5 8.3
2018-Dec-13 06:30 078 8.3
2018-Dec-13 06:15 275 1 gusting 4 8.3
2018-Dec-13 06:00 278 8.3
2018-Dec-13 05:45 279 0 gusting 4 8.9
2018-Dec-13 05:30 281 2 gusting 6 8.9
2018-Dec-13 05:16 259 8.3
2018-Dec-13 05:00 259 8.3
2018-Dec-13 04:45 259 8.3
2018-Dec-13 04:30 259 8.3
2018-Dec-13 04:15 259 8.3
2018-Dec-13 04:00 261 8.3
2018-Dec-13 03:45 259 0 gusting 5 8.3
2018-Dec-13 03:30 196 7.8
2018-Dec-13 03:15 288 0 gusting 2 8.3
2018-Dec-13 03:00 288 8.3
2018-Dec-13 02:45 288 8.3
2018-Dec-13 02:30 190 7.8
2018-Dec-13 02:15 190 7.8
2018-Dec-13 02:00 190 7.8
2018-Dec-13 01:45 124 1 gusting 5 8.3
2018-Dec-13 01:32 107 0 gusting 3 8.3
2018-Dec-13 01:16 110 8.3
2018-Dec-13 01:02 110 0 gusting 4 8.3
2018-Dec-13 00:47 096 7.8
2018-Dec-13 00:31 091 0 gusting 4 7.8
2018-Dec-13 00:17 134 3 gusting 7 7.8
2018-Dec-13 00:01 078 8.3
2018-Dec-12 23:46 078 7.8
2018-Dec-12 23:31 077 7.8
2018-Dec-12 23:16 129 4 gusting 6 8.3
2018-Dec-12 23:01 091 2 gusting 4 8.3
2018-Dec-12 22:45 103 0 gusting 3 8.3
2018-Dec-12 22:31 103 8.3
2018-Dec-12 22:17 103 8.3
2018-Dec-12 22:01 103 8.9
2018-Dec-12 21:45 103 0 gusting 2 8.9
2018-Dec-12 21:31 103 0 gusting 4 8.9
2018-Dec-12 21:16 111 8.9
2018-Dec-12 21:01 111 1 gusting 4 8.9
2018-Dec-12 20:46 104 0 gusting 3 8.9
2018-Dec-12 20:31 089 0 gusting 4 8.9
2018-Dec-12 20:16 113 0 gusting 4 8.9
2018-Dec-12 20:01 111 0 gusting 4 8.9
2018-Dec-12 19:45 079 0 gusting 4 8.9
2018-Dec-12 19:31 084 2 gusting 4 8.9
2018-Dec-12 19:15 084 8.9
2018-Dec-12 19:00 084 0 gusting 6 8.9
2018-Dec-12 18:46 098 0 gusting 6 8.9
2018-Dec-12 18:31 094 4 gusting 6 9.4
2018-Dec-12 18:15 116 2 gusting 6 9.4
2018-Dec-12 18:00 102 4 gusting 7 9.4
2018-Dec-12 17:46 121 3 gusting 6 10.0
2018-Dec-12 17:31 242 11.1
2018-Dec-12 17:15 242 11.7
2018-Dec-12 17:00 242 12.2
2018-Dec-12 16:46 242 13.3
2018-Dec-12 16:31 242 13.3
2018-Dec-12 16:15 242 13.9
2018-Dec-12 16:01 242 13.9
2018-Dec-12 15:45 242 13.9
2018-Dec-12 15:30 242 14.4
2018-Dec-12 15:16 208 13.9
2018-Dec-12 15:00 209 1 gusting 4 14.4
2018-Dec-12 14:45 232 1 gusting 3 13.9
2018-Dec-12 14:30 170 1 gusting 4 13.9
2018-Dec-12 14:15 119 0 gusting 4 13.3
2018-Dec-12 14:00 169 0 gusting 4 13.3
2018-Dec-12 13:45 245 13.3
2018-Dec-12 13:30 269 12.2
2018-Dec-12 13:15 202 0 gusting 4 12.8
2018-Dec-12 13:00 214 1 gusting 6 12.2
2018-Dec-12 12:45 109 0 gusting 5 11.7
2018-Dec-12 12:30 244 0 gusting 4 11.7
2018-Dec-12 12:15 246 11.7
2018-Dec-12 12:00 252 0 gusting 4 11.1
2018-Dec-12 11:45 211 1 gusting 5 11.1
2018-Dec-12 11:30 184 1 gusting 5 10.6
2018-Dec-12 11:15 185 0 gusting 6 10.6
2018-Dec-12 11:03 182 1 gusting 5 10.6
2018-Dec-12 10:47 231 0 gusting 5 10.6
2018-Dec-12 10:31 300 0 gusting 4 10.0
2018-Dec-12 10:16 299 8.9
2018-Dec-12 10:01 299 8.3
2018-Dec-12 09:47 299 8.9
2018-Dec-12 09:31 299 0 gusting 2 7.8
2018-Dec-12 09:16 322 7.8
2018-Dec-12 09:02 084 7.8
2018-Dec-12 08:46 090 6.7
2018-Dec-12 08:31 090 6.1
2018-Dec-12 08:15 090 5.0
2018-Dec-12 08:01 119 0 gusting 3 4.4
2018-Dec-12 07:46 119 0 gusting 4 4.4
2018-Dec-12 07:31 098 3 gusting 6 5.0
2018-Dec-12 07:16 132 5.0
2018-Dec-12 07:00 132 5.0
2018-Dec-12 06:45 117 3 gusting 6 5.0
2018-Dec-12 06:31 088 4.4
2018-Dec-12 06:15 088 4.4
2018-Dec-12 06:00 088 4.4